Harvey Supporter — WDF9689 — position and weather

sailwx.info

Track history (hours):
 
Tides and Currents Weather Stations Pressure Air Temp Water Temp Dewpoint Dewpoint Depression Visibility Wind Speed Wind Dir Waves Ship Positions

Harvey Supporter

Owner: Harvey Supporter, LLC, New Orleans, LA. More information available from US FCC via Universal Licensing System and Coast Guard Vessel Documentation Center.

Last reported at 2015-Jun-28 14:06 UTC. Time now 2015-Jul-06 02:54 UTC.
Position N 49°33' W 128°00'.

Length 89 m; draft 5.4 m.

Type: Cargo ship. MMSI: 367507790.

Date/timePositionNaut miles runAvg speedWind from/ knotsBaromVisibWave heightAir tempDewpointWater temp
2015-Jun-28 14:06N 49°33' W 128°00'9 9.8
2015-Jun-28 13:14N 49°30' W 127°48'9 9.8
2015-Jun-28 12:17N 49°25' W 127°36'8 9.9
2015-Jun-28 11:29N 49°23' W 127°24'910.2
2015-Jun-28 10:33N 49°18' W 127°12'1010.1
2015-Jun-28 09:33N 49°13' W 126°58'10 9.8
2015-Jun-28 08:33N 49°09' W 126°44'1010.4
2015-Jun-28 07:33N 49°05' W 126°30'1010.2
2015-Jun-28 06:33N 49°00' W 126°16'1010.3
2015-Jun-28 05:33N 48°56' W 126°02'1010.3
2015-Jun-28 04:33N 48°51' W 125°48'1010.4
2015-Jun-28 03:33N 48°46' W 125°34'1110.6
2015-Jun-28 02:33N 48°42' W 125°19'1111.2
2015-Jun-28 01:33N 48°37' W 125°04'1211.7
2015-Jun-28 00:33N 48°32' W 124°48'612.0
2015-Jun-28 00:03N 48°29' W 124°40'611.7
2015-Jun-27 23:33N 48°27' W 124°32'1111.3
2015-Jun-27 22:33N 48°23' W 124°16'1111.0
2015-Jun-27 21:33N 48°19' W 124°01'811.1
2015-Jun-27 20:52N 48°17' W 123°50'310.6
2015-Jun-27 20:33N 48°17' W 123°45'1010.3
2015-Jun-27 19:33N 48°15' W 123°29'10 9.8
2015-Jun-27 18:33N 48°09' W 123°17'10 9.8
2015-Jun-27 17:33N 48°12' W 123°03'1110.3
2015-Jun-27 16:30N 48°11' W 122°47'1010.3
2015-Jun-27 15:33N 48°04' W 122°38'1110.9
2015-Jun-27 14:33N 47°55' W 122°29'1110.6
2015-Jun-27 13:33N 47°44' W 122°26'9 9.1
2015-Jun-27 12:33N 47°35' W 122°26'9 9.2
2015-Jun-27 11:33N 47°26' W 122°23'8 8.5
2015-Jun-27 10:33N 47°18' W 122°27'3 0.3
2015-Jun-26 23:33N 47°16' W 122°24'2 0.7
2015-Jun-26 21:20N 47°17' W 122°25'1 3.9
2015-Jun-26 21:04N 47°18' W 122°27'4 8.0
2015-Jun-26 20:33N 47°21' W 122°25'3 8.3
2015-Jun-26 20:09N 47°25' W 122°23'610.4
2015-Jun-26 19:33N 47°30' W 122°26'110.6
2015-Jun-26 19:29N 47°31' W 122°26'1010.3
2015-Jun-26 18:33N 47°41' W 122°28'110.1
2015-Jun-26 18:28N 47°41' W 122°28'910.1
2015-Jun-26 17:33N 47°50' W 122°24'0 9.9
2015-Jun-26 17:32N 47°51' W 122°24'10 9.7
2015-Jun-26 16:33N 47°58' W 122°16'1 1.3
2015-Jun-26 15:33N 47°58' W 122°14'0 0.0
2015-Jun-26 14:33N 47°58' W 122°14'0 0.0
2015-Jun-26 13:33N 47°58' W 122°14'0 0.0
2015-Jun-26 12:33N 47°58' W 122°14'0 0.0
2015-Jun-26 11:33N 47°58' W 122°14'0 0.0
2015-Jun-26 10:33N 47°58' W 122°14'0 0.0
2015-Jun-26 09:33N 47°58' W 122°14'0 0.0
2015-Jun-26 08:33N 47°58' W 122°14'0 0.0
2015-Jun-26 07:33N 47°58' W 122°14'0 0.0
2015-Jun-26 06:33N 47°58' W 122°14'0 0.0
2015-Jun-26 05:33N 47°58' W 122°14'0 0.0
2015-Jun-26 04:33N 47°58' W 122°14'0 0.0
2015-Jun-26 03:33N 47°58' W 122°14'0 0.0
2015-Jun-26 02:33N 47°58' W 122°14'0 0.0
2015-Jun-26 01:33N 47°58' W 122°14'0 0.0
2015-Jun-26 00:33N 47°58' W 122°14'0 0.0
2015-Jun-25 23:33N 47°58' W 122°14'0 0.0
2015-Jun-25 22:33N 47°58' W 122°14'0 0.0
2015-Jun-25 21:33N 47°58' W 122°14'0 0.0
2015-Jun-25 20:33N 47°58' W 122°14'0 0.0
2015-Jun-25 19:33N 47°58' W 122°14'0 0.0
2015-Jun-25 18:33N 47°58' W 122°14'0 0.0
2015-Jun-25 17:33N 47°58' W 122°14'0 0.4
2015-Jun-25 16:33N 47°59' W 122°13'0 0.0
2015-Jun-25 15:33N 47°59' W 122°13'0 0.0
2015-Jun-25 14:33N 47°59' W 122°13'0 0.0
2015-Jun-25 13:33N 47°59' W 122°13'0 0.0
2015-Jun-25 11:33N 47°59' W 122°13'0 0.0
2015-Jun-25 10:33N 47°59' W 122°13'0 0.0
2015-Jun-25 09:33N 47°59' W 122°13'0 0.0
2015-Jun-25 08:33N 47°59' W 122°13'0 0.0
2015-Jun-25 07:33N 47°59' W 122°13'0 0.0
2015-Jun-25 06:33N 47°59' W 122°13'0 0.0
2015-Jun-25 05:33N 47°59' W 122°13'0 0.0
2015-Jun-25 04:33N 47°59' W 122°13'0 0.0
2015-Jun-25 03:33N 47°59' W 122°13'0 0.0
2015-Jun-25 02:27N 47°59' W 122°13'0 0.0
2015-Jun-25 01:33N 47°59' W 122°13'0 0.0
2015-Jun-25 00:33N 47°59' W 122°13'0 0.0
2015-Jun-24 23:33N 47°59' W 122°13'0 0.4
2015-Jun-24 22:33N 47°58' W 122°14'0 0.0
2015-Jun-24 21:33N 47°58' W 122°14'0 0.0
2015-Jun-24 20:30N 47°58' W 122°14'0 0.0
2015-Jun-24 19:33N 47°58' W 122°14'0 0.0
2015-Jun-24 18:33N 47°58' W 122°14'0 0.0
2015-Jun-24 17:30N 47°58' W 122°14'0 0.0
2015-Jun-24 16:30N 47°58' W 122°14'0 0.0
2015-Jun-24 15:33N 47°58' W 122°14'0 0.0
2015-Jun-24 14:33N 47°58' W 122°14'0 0.0
2015-Jun-24 13:33N 47°58' W 122°14'0 0.0
2015-Jun-24 12:24N 47°58' W 122°14'0 0.0
2015-Jun-24 11:33N 47°58' W 122°14'0 0.0
2015-Jun-24 10:33N 47°58' W 122°14'0 0.0
2015-Jun-24 09:33N 47°58' W 122°14'0 0.0
2015-Jun-24 08:33N 47°58' W 122°14'0 0.0
2015-Jun-24 07:33N 47°58' W 122°14'0 0.0
2015-Jun-24 06:33N 47°58' W 122°14'0 0.0
2015-Jun-24 05:33N 47°58' W 122°14'0 0.0
2015-Jun-24 04:33N 47°58' W 122°14'0 0.0
2015-Jun-24 03:33N 47°58' W 122°14'0 0.0
2015-Jun-24 02:33N 47°58' W 122°14'0 0.0
2015-Jun-24 01:33N 47°58' W 122°14'0 0.0
2015-Jun-24 00:33N 47°58' W 122°14'0 0.0
2015-Jun-23 23:33N 47°58' W 122°14'0 0.0
2015-Jun-23 22:33N 47°58' W 122°14'0 0.0
2015-Jun-23 21:33N 47°58' W 122°14'0 0.0
2015-Jun-23 20:33N 47°58' W 122°14'0 0.0
2015-Jun-23 19:27N 47°58' W 122°14'0 0.0
2015-Jun-23 19:03N 47°58' W 122°14'24 1.0
2015-Jun-22 19:33N 47°35' W 122°22'0 0.0
2015-Jun-22 18:33N 47°35' W 122°22'0 0.0
2015-Jun-22 17:30N 47°35' W 122°22'0 0.0
2015-Jun-22 16:33N 47°35' W 122°22'0 0.0
2015-Jun-22 15:33N 47°35' W 122°22'0 0.0
2015-Jun-22 14:30N 47°35' W 122°22'0 0.0
2015-Jun-22 13:33N 47°35' W 122°22'0 0.0
2015-Jun-22 12:24N 47°35' W 122°22'0 0.0
2015-Jun-22 11:33N 47°35' W 122°22'0 0.0
2015-Jun-22 10:33N 47°35' W 122°22'0 0.0
2015-Jun-22 09:27N 47°35' W 122°22'0 0.0
2015-Jun-22 08:24N 47°35' W 122°22'0 0.0
2015-Jun-22 07:33N 47°35' W 122°22'0 0.0
2015-Jun-22 06:33N 47°35' W 122°22'0 0.0
2015-Jun-22 05:33N 47°35' W 122°22'0 0.0
2015-Jun-22 04:12N 47°35' W 122°22'0 0.0
2015-Jun-22 03:33N 47°35' W 122°22'0 0.0
2015-Jun-22 02:24N 47°35' W 122°22'0 0.0
2015-Jun-22 01:27N 47°35' W 122°22'0 0.0
2015-Jun-22 00:33N 47°35' W 122°22'0 0.0
2015-Jun-21 23:12N 47°35' W 122°22'0 0.0
2015-Jun-21 22:33N 47°35' W 122°22'0 0.0
2015-Jun-21 21:33N 47°35' W 122°22'0 0.0
2015-Jun-21 20:15N 47°35' W 122°22'0 0.1
2015-Jun-21 20:09N 47°35' W 122°22'0 0.0
2015-Jun-21 19:33N 47°35' W 122°22'0 0.0
2015-Jun-21 19:29N 47°35' W 122°22'0 0.0
2015-Jun-21 18:33N 47°35' W 122°22'0 0.0
2015-Jun-21 18:33N 47°35' W 122°22'0 0.0
2015-Jun-21 17:34N 47°35' W 122°22'0 0.0
2015-Jun-21 17:32N 47°35' W 122°22'0 0.0
2015-Jun-21 16:33N 47°35' W 122°22'0 0.0
2015-Jun-21 16:32N 47°35' W 122°22'0 0.0
2015-Jun-21 15:33N 47°35' W 122°22'0 0.2
2015-Jun-21 15:32N 47°35' W 122°22'0 0.0
2015-Jun-21 14:34N 47°35' W 122°22'0 0.0
2015-Jun-21 14:30N 47°35' W 122°22'0 0.0
2015-Jun-21 13:33N 47°35' W 122°22'0 0.0
2015-Jun-21 13:30N 47°35' W 122°22'0 0.0
2015-Jun-21 12:33N 47°35' W 122°22'0 0.1
2015-Jun-21 12:30N 47°35' W 122°22'0 0.0
2015-Jun-21 11:33N 47°35' W 122°22'0 0.0
2015-Jun-21 11:23N 47°35' W 122°22'0 0.0
2015-Jun-21 10:33N 47°35' W 122°22'0 0.0
2015-Jun-21 10:31N 47°35' W 122°22'0 0.0
2015-Jun-21 09:33N 47°35' W 122°22'0 0.1
2015-Jun-21 09:30N 47°35' W 122°22'0 0.0
2015-Jun-21 08:33N 47°35' W 122°22'0 0.1
2015-Jun-21 08:30N 47°35' W 122°22'0 0.0
2015-Jun-21 07:33N 47°35' W 122°22'0 0.0
2015-Jun-21 07:13N 47°35' W 122°22'0 0.0
2015-Jun-21 06:33N 47°35' W 122°22'0 0.0
2015-Jun-21 06:33N 47°35' W 122°22'0 0.0
2015-Jun-21 06:03N 47°35' W 122°22'0 0.0
2015-Jun-21 05:33N 47°35' W 122°22'0 0.0
2015-Jun-21 04:33N 47°35' W 122°22'0 0.0
2015-Jun-21 04:01N 47°35' W 122°22'0 0.0
2015-Jun-21 03:33N 47°35' W 122°22'0 0.1
2015-Jun-21 03:30N 47°35' W 122°22'0 0.0
2015-Jun-21 02:33N 47°35' W 122°22'0 0.0
2015-Jun-21 02:29N 47°35' W 122°22'0 0.0
2015-Jun-21 01:31N 47°35' W 122°22'0 0.1
2015-Jun-21 01:27N 47°35' W 122°22'0 0.0
2015-Jun-21 00:33N 47°35' W 122°22'0 0.0
2015-Jun-21 00:32N 47°35' W 122°22'0 0.0
2015-Jun-20 23:33N 47°35' W 122°22'0 0.2
2015-Jun-20 23:31N 47°35' W 122°22'0 0.0
2015-Jun-20 22:33N 47°35' W 122°22'0 0.1
2015-Jun-20 22:30N 47°35' W 122°22'0 0.0
2015-Jun-20 21:33N 47°35' W 122°22'0 0.0
2015-Jun-20 21:24N 47°35' W 122°22'0 0.0
2015-Jun-20 20:33N 47°35' W 122°22'0 0.0
2015-Jun-20 20:08N 47°35' W 122°22'0 0.0
2015-Jun-20 19:33N 47°35' W 122°22'0 0.0
2015-Jun-20 19:28N 47°35' W 122°22'0 0.0
2015-Jun-20 18:33N 47°35' W 122°22'0 0.0
2015-Jun-20 18:32N 47°35' W 122°22'0 0.0
2015-Jun-20 17:33N 47°35' W 122°22'0 0.0
2015-Jun-20 17:31N 47°35' W 122°22'0 0.0
2015-Jun-20 16:33N 47°35' W 122°22'0 0.0
2015-Jun-20 16:31N 47°35' W 122°22'0 0.0
2015-Jun-20 15:33N 47°35' W 122°22'0 0.1
2015-Jun-20 15:31N 47°35' W 122°22'0 0.0
2015-Jun-20 14:35N 47°35' W 122°22'0 0.0
2015-Jun-20 14:33N 47°35' W 122°22'0 0.0
2015-Jun-20 13:33N 47°35' W 122°22'0 0.0
2015-Jun-20 13:29N 47°35' W 122°22'0 0.0
2015-Jun-20 12:33N 47°35' W 122°22'0 0.0
2015-Jun-20 12:33N 47°35' W 122°22'0 0.0
2015-Jun-20 11:33N 47°35' W 122°22'0 0.0
2015-Jun-20 11:32N 47°35' W 122°22'0 0.0
2015-Jun-20 10:33N 47°35' W 122°22'0 0.0
2015-Jun-20 10:26N 47°35' W 122°22'0 0.0
2015-Jun-20 09:33N 47°35' W 122°22'0 0.0
2015-Jun-20 09:25N 47°35' W 122°22'0 0.0
2015-Jun-20 08:33N 47°35' W 122°22'0 0.0
2015-Jun-20 08:30N 47°35' W 122°22'0 0.0
2015-Jun-20 07:33N 47°35' W 122°22'0 0.1
2015-Jun-20 07:29N 47°35' W 122°22'0 0.0
2015-Jun-20 06:33N 47°35' W 122°22'0 0.0
2015-Jun-20 06:08N 47°35' W 122°22'0 0.0
2015-Jun-20 05:58N 47°35' W 122°22'0 0.0
2015-Jun-20 05:33N 47°35' W 122°22'0 0.0
2015-Jun-20 04:33N 47°35' W 122°22'0 0.2
2015-Jun-20 04:31N 47°35' W 122°22'0 0.0
2015-Jun-20 03:33N 47°35' W 122°22'0 0.0
2015-Jun-20 03:30N 47°35' W 122°22'0 0.0
2015-Jun-20 02:33N 47°35' W 122°22'0 0.1
2015-Jun-20 02:29N 47°35' W 122°22'0 0.0
2015-Jun-20 01:33N 47°35' W 122°22'0 0.1
2015-Jun-20 01:29N 47°35' W 122°22'0 0.0
2015-Jun-20 00:33N 47°35' W 122°22'0 0.0
2015-Jun-20 00:33N 47°35' W 122°22'0 0.0
2015-Jun-19 23:33N 47°35' W 122°22'0 0.0
2015-Jun-19 23:33N 47°35' W 122°22'0 0.0
2015-Jun-19 22:33N 47°35' W 122°22'0 0.0
2015-Jun-19 22:33N 47°35' W 122°22'0 0.0
2015-Jun-19 21:33N 47°35' W 122°22'0 0.0
2015-Jun-19 21:33N 47°35' W 122°22'0 0.0
2015-Jun-19 20:33N 47°35' W 122°22'0 0.2
2015-Jun-19 20:32N 47°35' W 122°22'0 0.0
2015-Jun-19 19:32N 47°35' W 122°22'0 0.0
2015-Jun-19 19:31N 47°35' W 122°22'0 0.0
2015-Jun-19 18:33N 47°35' W 122°22'0 0.1
2015-Jun-19 18:31N 47°35' W 122°22'0 0.0
2015-Jun-19 17:33N 47°35' W 122°22'0 0.0
2015-Jun-19 17:20N 47°35' W 122°22'0 0.0
2015-Jun-19 16:33N 47°35' W 122°22'0 0.0
2015-Jun-19 16:29N 47°35' W 122°22'0 0.0
2015-Jun-19 15:33N 47°35' W 122°22'0 0.0
2015-Jun-19 15:24N 47°35' W 122°22'0 0.0
2015-Jun-19 14:33N 47°35' W 122°22'0 0.6
2015-Jun-19 14:33N 47°35' W 122°22'0 0.0
2015-Jun-19 13:33N 47°35' W 122°22'0 0.0
2015-Jun-19 13:22N 47°35' W 122°22'0 0.0
2015-Jun-19 12:33N 47°35' W 122°22'0 0.0
2015-Jun-19 12:31N 47°35' W 122°22'0 0.0
2015-Jun-19 11:33N 47°35' W 122°22'0 0.0
2015-Jun-19 11:29N 47°35' W 122°22'0 0.0
2015-Jun-19 10:33N 47°35' W 122°22'0 0.0
2015-Jun-19 10:33N 47°35' W 122°22'0 0.0
2015-Jun-19 09:33N 47°35' W 122°22'0 0.0
2015-Jun-19 09:33N 47°35' W 122°22'0 0.0
2015-Jun-19 08:33N 47°35' W 122°22'0 0.0
2015-Jun-19 08:33N 47°35' W 122°22'0 0.0
2015-Jun-19 07:33N 47°35' W 122°22'0 0.0
2015-Jun-19 07:32N 47°35' W 122°22'0 0.0
2015-Jun-19 06:33N 47°35' W 122°22'0 0.0
2015-Jun-19 06:32N 47°35' W 122°22'0 0.0
2015-Jun-19 06:07N 47°35' W 122°22'0 0.0
2015-Jun-19 05:33N 47°35' W 122°22'0 0.0
2015-Jun-19 04:33N 47°35' W 122°22'0 0.1
2015-Jun-19 04:31N 47°35' W 122°22'0 0.0
2015-Jun-19 03:33N 47°35' W 122°22'0 0.0
2015-Jun-19 03:30N 47°35' W 122°22'0 0.0
2015-Jun-19 02:32N 47°35' W 122°22'0 0.0
2015-Jun-19 02:29N 47°35' W 122°22'0 0.0
2015-Jun-19 01:33N 47°35' W 122°22'0 0.1
2015-Jun-19 01:29N 47°35' W 122°22'0 0.0
2015-Jun-19 00:33N 47°35' W 122°22'0 0.1
2015-Jun-19 00:29N 47°35' W 122°22'0 0.0
2015-Jun-18 23:33N 47°35' W 122°22'0 0.0
2015-Jun-18 23:23N 47°35' W 122°22'0 0.0
2015-Jun-18 22:33N 47°35' W 122°22'0 0.0
2015-Jun-18 22:32N 47°35' W 122°22'0 0.0
2015-Jun-18 21:33N 47°35' W 122°22'0 0.0
2015-Jun-18 21:31N 47°35' W 122°22'0 0.0
2015-Jun-18 20:33N 47°35' W 122°22'0 0.0
2015-Jun-18 20:31N 47°35' W 122°22'0 0.0
2015-Jun-18 19:33N 47°35' W 122°22'0 0.0
2015-Jun-18 19:31N 47°35' W 122°22'0 0.0
2015-Jun-18 18:33N 47°35' W 122°22'0 0.0
2015-Jun-18 18:30N 47°35' W 122°22'0 0.0
2015-Jun-18 17:33N 47°35' W 122°22'0 0.0
2015-Jun-18 17:30N 47°35' W 122°22'0 0.0
2015-Jun-18 16:33N 47°35' W 122°22'0 0.0
2015-Jun-18 16:30N 47°35' W 122°22'0 0.0
2015-Jun-18 15:33N 47°35' W 122°22'0 0.0
2015-Jun-18 15:30N 47°35' W 122°22'0 0.0
2015-Jun-18 14:33N 47°35' W 122°22'0 0.0
2015-Jun-18 14:29N 47°35' W 122°22'  
Track history (hours):
 
Tides and Currents Weather Stations Pressure Air Temp Water Temp Dewpoint Dewpoint Depression Visibility Wind Speed Wind Dir Waves Ship Positions

Harvey Supporter

Owner: Harvey Supporter, LLC, New Orleans, LA. More information available from US FCC via Universal Licensing System and Coast Guard Vessel Documentation Center.

Last reported at 2015-Jun-28 14:06 UTC. Time now 2015-Jul-06 02:54 UTC.
Position N 49°33' W 128°00'.

Length 89 m; draft 5.4 m.

Type: Cargo ship. MMSI: 367507790.

Date/timePositionNaut miles runAvg speedWind from/ knotsBaromVisibWave heightAir tempDewpointWater temp
2015-Jun-28 14:06N 49°33' W 128°00'9 9.8
2015-Jun-28 13:14N 49°30' W 127°48'9 9.8
2015-Jun-28 12:17N 49°25' W 127°36'8 9.9
2015-Jun-28 11:29N 49°23' W 127°24'910.2
2015-Jun-28 10:33N 49°18' W 127°12'1010.1
2015-Jun-28 09:33N 49°13' W 126°58'10 9.8
2015-Jun-28 08:33N 49°09' W 126°44'1010.4
2015-Jun-28 07:33N 49°05' W 126°30'1010.2
2015-Jun-28 06:33N 49°00' W 126°16'1010.3
2015-Jun-28 05:33N 48°56' W 126°02'1010.3
2015-Jun-28 04:33N 48°51' W 125°48'1010.4
2015-Jun-28 03:33N 48°46' W 125°34'1110.6
2015-Jun-28 02:33N 48°42' W 125°19'1111.2
2015-Jun-28 01:33N 48°37' W 125°04'1211.7
2015-Jun-28 00:33N 48°32' W 124°48'612.0
2015-Jun-28 00:03N 48°29' W 124°40'611.7
2015-Jun-27 23:33N 48°27' W 124°32'1111.3
2015-Jun-27 22:33N 48°23' W 124°16'1111.0
2015-Jun-27 21:33N 48°19' W 124°01'811.1
2015-Jun-27 20:52N 48°17' W 123°50'310.6
2015-Jun-27 20:33N 48°17' W 123°45'1010.3
2015-Jun-27 19:33N 48°15' W 123°29'10 9.8
2015-Jun-27 18:33N 48°09' W 123°17'10 9.8
2015-Jun-27 17:33N 48°12' W 123°03'1110.3
2015-Jun-27 16:30N 48°11' W 122°47'1010.3
2015-Jun-27 15:33N 48°04' W 122°38'1110.9
2015-Jun-27 14:33N 47°55' W 122°29'1110.6
2015-Jun-27 13:33N 47°44' W 122°26'9 9.1
2015-Jun-27 12:33N 47°35' W 122°26'9 9.2
2015-Jun-27 11:33N 47°26' W 122°23'8 8.5
2015-Jun-27 10:33N 47°18' W 122°27'3 0.3
2015-Jun-26 23:33N 47°16' W 122°24'2 0.7
2015-Jun-26 21:20N 47°17' W 122°25'1 3.9
2015-Jun-26 21:04N 47°18' W 122°27'4 8.0
2015-Jun-26 20:33N 47°21' W 122°25'3 8.3
2015-Jun-26 20:09N 47°25' W 122°23'610.4
2015-Jun-26 19:33N 47°30' W 122°26'110.6
2015-Jun-26 19:29N 47°31' W 122°26'1010.3
2015-Jun-26 18:33N 47°41' W 122°28'110.1
2015-Jun-26 18:28N 47°41' W 122°28'910.1
2015-Jun-26 17:33N 47°50' W 122°24'0 9.9
2015-Jun-26 17:32N 47°51' W 122°24'10 9.7
2015-Jun-26 16:33N 47°58' W 122°16'1 1.3
2015-Jun-26 15:33N 47°58' W 122°14'0 0.0
2015-Jun-26 14:33N 47°58' W 122°14'0 0.0
2015-Jun-26 13:33N 47°58' W 122°14'0 0.0
2015-Jun-26 12:33N 47°58' W 122°14'0 0.0
2015-Jun-26 11:33N 47°58' W 122°14'0 0.0
2015-Jun-26 10:33N 47°58' W 122°14'0 0.0
2015-Jun-26 09:33N 47°58' W 122°14'0 0.0
2015-Jun-26 08:33N 47°58' W 122°14'0 0.0
2015-Jun-26 07:33N 47°58' W 122°14'0 0.0
2015-Jun-26 06:33N 47°58' W 122°14'0 0.0
2015-Jun-26 05:33N 47°58' W 122°14'0 0.0
2015-Jun-26 04:33N 47°58' W 122°14'0 0.0
2015-Jun-26 03:33N 47°58' W 122°14'0 0.0
2015-Jun-26 02:33N 47°58' W 122°14'0 0.0
2015-Jun-26 01:33N 47°58' W 122°14'0 0.0
2015-Jun-26 00:33N 47°58' W 122°14'0 0.0
2015-Jun-25 23:33N 47°58' W 122°14'0 0.0
2015-Jun-25 22:33N 47°58' W 122°14'0 0.0
2015-Jun-25 21:33N 47°58' W 122°14'0 0.0
2015-Jun-25 20:33N 47°58' W 122°14'0 0.0
2015-Jun-25 19:33N 47°58' W 122°14'0 0.0
2015-Jun-25 18:33N 47°58' W 122°14'0 0.0
2015-Jun-25 17:33N 47°58' W 122°14'0 0.4
2015-Jun-25 16:33N 47°59' W 122°13'0 0.0
2015-Jun-25 15:33N 47°59' W 122°13'0 0.0
2015-Jun-25 14:33N 47°59' W 122°13'0 0.0
2015-Jun-25 13:33N 47°59' W 122°13'0 0.0
2015-Jun-25 11:33N 47°59' W 122°13'0 0.0
2015-Jun-25 10:33N 47°59' W 122°13'0 0.0
2015-Jun-25 09:33N 47°59' W 122°13'0 0.0
2015-Jun-25 08:33N 47°59' W 122°13'0 0.0
2015-Jun-25 07:33N 47°59' W 122°13'0 0.0
2015-Jun-25 06:33N 47°59' W 122°13'0 0.0
2015-Jun-25 05:33N 47°59' W 122°13'0 0.0
2015-Jun-25 04:33N 47°59' W 122°13'0 0.0
2015-Jun-25 03:33N 47°59' W 122°13'0 0.0
2015-Jun-25 02:27N 47°59' W 122°13'0 0.0
2015-Jun-25 01:33N 47°59' W 122°13'0 0.0
2015-Jun-25 00:33N 47°59' W 122°13'0 0.0
2015-Jun-24 23:33N 47°59' W 122°13'0 0.4
2015-Jun-24 22:33N 47°58' W 122°14'0 0.0
2015-Jun-24 21:33N 47°58' W 122°14'0 0.0
2015-Jun-24 20:30N 47°58' W 122°14'0 0.0
2015-Jun-24 19:33N 47°58' W 122°14'0 0.0
2015-Jun-24 18:33N 47°58' W 122°14'0 0.0
2015-Jun-24 17:30N 47°58' W 122°14'0 0.0
2015-Jun-24 16:30N 47°58' W 122°14'0 0.0
2015-Jun-24 15:33N 47°58' W 122°14'0 0.0
2015-Jun-24 14:33N 47°58' W 122°14'0 0.0
2015-Jun-24 13:33N 47°58' W 122°14'0 0.0
2015-Jun-24 12:24N 47°58' W 122°14'0 0.0
2015-Jun-24 11:33N 47°58' W 122°14'0 0.0
2015-Jun-24 10:33N 47°58' W 122°14'0 0.0
2015-Jun-24 09:33N 47°58' W 122°14'0 0.0
2015-Jun-24 08:33N 47°58' W 122°14'0 0.0
2015-Jun-24 07:33N 47°58' W 122°14'0 0.0
2015-Jun-24 06:33N 47°58' W 122°14'0 0.0
2015-Jun-24 05:33N 47°58' W 122°14'0 0.0
2015-Jun-24 04:33N 47°58' W 122°14'0 0.0
2015-Jun-24 03:33N 47°58' W 122°14'0 0.0
2015-Jun-24 02:33N 47°58' W 122°14'0 0.0
2015-Jun-24 01:33N 47°58' W 122°14'0 0.0
2015-Jun-24 00:33N 47°58' W 122°14'0 0.0
2015-Jun-23 23:33N 47°58' W 122°14'0 0.0
2015-Jun-23 22:33N 47°58' W 122°14'0 0.0
2015-Jun-23 21:33N 47°58' W 122°14'0 0.0
2015-Jun-23 20:33N 47°58' W 122°14'0 0.0
2015-Jun-23 19:27N 47°58' W 122°14'0 0.0
2015-Jun-23 19:03N 47°58' W 122°14'24 1.0
2015-Jun-22 19:33N 47°35' W 122°22'0 0.0
2015-Jun-22 18:33N 47°35' W 122°22'0 0.0
2015-Jun-22 17:30N 47°35' W 122°22'0 0.0
2015-Jun-22 16:33N 47°35' W 122°22'0 0.0
2015-Jun-22 15:33N 47°35' W 122°22'0 0.0
2015-Jun-22 14:30N 47°35' W 122°22'0 0.0
2015-Jun-22 13:33N 47°35' W 122°22'0 0.0
2015-Jun-22 12:24N 47°35' W 122°22'0 0.0
2015-Jun-22 11:33N 47°35' W 122°22'0 0.0
2015-Jun-22 10:33N 47°35' W 122°22'0 0.0
2015-Jun-22 09:27N 47°35' W 122°22'0 0.0
2015-Jun-22 08:24N 47°35' W 122°22'0 0.0
2015-Jun-22 07:33N 47°35' W 122°22'0 0.0
2015-Jun-22 06:33N 47°35' W 122°22'0 0.0
2015-Jun-22 05:33N 47°35' W 122°22'0 0.0
2015-Jun-22 04:12N 47°35' W 122°22'0 0.0
2015-Jun-22 03:33N 47°35' W 122°22'0 0.0
2015-Jun-22 02:24N 47°35' W 122°22'0 0.0
2015-Jun-22 01:27N 47°35' W 122°22'0 0.0
2015-Jun-22 00:33N 47°35' W 122°22'0 0.0
2015-Jun-21 23:12N 47°35' W 122°22'0 0.0
2015-Jun-21 22:33N 47°35' W 122°22'0 0.0
2015-Jun-21 21:33N 47°35' W 122°22'0 0.0
2015-Jun-21 20:15N 47°35' W 122°22'0 0.1
2015-Jun-21 20:09N 47°35' W 122°22'0 0.0
2015-Jun-21 19:33N 47°35' W 122°22'0 0.0
2015-Jun-21 19:29N 47°35' W 122°22'0 0.0
2015-Jun-21 18:33N 47°35' W 122°22'0 0.0
2015-Jun-21 18:33N 47°35' W 122°22'0 0.0
2015-Jun-21 17:34N 47°35' W 122°22'0 0.0
2015-Jun-21 17:32N 47°35' W 122°22'0 0.0
2015-Jun-21 16:33N 47°35' W 122°22'0 0.0
2015-Jun-21 16:32N 47°35' W 122°22'0 0.0
2015-Jun-21 15:33N 47°35' W 122°22'0 0.2
2015-Jun-21 15:32N 47°35' W 122°22'0 0.0
2015-Jun-21 14:34N 47°35' W 122°22'0 0.0
2015-Jun-21 14:30N 47°35' W 122°22'0 0.0
2015-Jun-21 13:33N 47°35' W 122°22'0 0.0
2015-Jun-21 13:30N 47°35' W 122°22'0 0.0
2015-Jun-21 12:33N 47°35' W 122°22'0 0.1
2015-Jun-21 12:30N 47°35' W 122°22'0 0.0
2015-Jun-21 11:33N 47°35' W 122°22'0 0.0
2015-Jun-21 11:23N 47°35' W 122°22'0 0.0
2015-Jun-21 10:33N 47°35' W 122°22'0 0.0
2015-Jun-21 10:31N 47°35' W 122°22'0 0.0
2015-Jun-21 09:33N 47°35' W 122°22'0 0.1
2015-Jun-21 09:30N 47°35' W 122°22'0 0.0
2015-Jun-21 08:33N 47°35' W 122°22'0 0.1
2015-Jun-21 08:30N 47°35' W 122°22'0 0.0
2015-Jun-21 07:33N 47°35' W 122°22'0 0.0
2015-Jun-21 07:13N 47°35' W 122°22'0 0.0
2015-Jun-21 06:33N 47°35' W 122°22'0 0.0
2015-Jun-21 06:33N 47°35' W 122°22'0 0.0
2015-Jun-21 06:03N 47°35' W 122°22'0 0.0
2015-Jun-21 05:33N 47°35' W 122°22'0 0.0
2015-Jun-21 04:33N 47°35' W 122°22'0 0.0
2015-Jun-21 04:01N 47°35' W 122°22'0 0.0
2015-Jun-21 03:33N 47°35' W 122°22'0 0.1
2015-Jun-21 03:30N 47°35' W 122°22'0 0.0
2015-Jun-21 02:33N 47°35' W 122°22'0 0.0
2015-Jun-21 02:29N 47°35' W 122°22'0 0.0
2015-Jun-21 01:31N 47°35' W 122°22'0 0.1
2015-Jun-21 01:27N 47°35' W 122°22'0 0.0
2015-Jun-21 00:33N 47°35' W 122°22'0 0.0
2015-Jun-21 00:32N 47°35' W 122°22'0 0.0
2015-Jun-20 23:33N 47°35' W 122°22'0 0.2
2015-Jun-20 23:31N 47°35' W 122°22'0 0.0
2015-Jun-20 22:33N 47°35' W 122°22'0 0.1
2015-Jun-20 22:30N 47°35' W 122°22'0 0.0
2015-Jun-20 21:33N 47°35' W 122°22'0 0.0
2015-Jun-20 21:24N 47°35' W 122°22'0 0.0
2015-Jun-20 20:33N 47°35' W 122°22'0 0.0
2015-Jun-20 20:08N 47°35' W 122°22'0 0.0
2015-Jun-20 19:33N 47°35' W 122°22'0 0.0
2015-Jun-20 19:28N 47°35' W 122°22'0 0.0
2015-Jun-20 18:33N 47°35' W 122°22'0 0.0
2015-Jun-20 18:32N 47°35' W 122°22'0 0.0
2015-Jun-20 17:33N 47°35' W 122°22'0 0.0
2015-Jun-20 17:31N 47°35' W 122°22'0 0.0
2015-Jun-20 16:33N 47°35' W 122°22'0 0.0
2015-Jun-20 16:31N 47°35' W 122°22'0 0.0
2015-Jun-20 15:33N 47°35' W 122°22'0 0.1
2015-Jun-20 15:31N 47°35' W 122°22'0 0.0
2015-Jun-20 14:35N 47°35' W 122°22'0 0.0
2015-Jun-20 14:33N 47°35' W 122°22'0 0.0
2015-Jun-20 13:33N 47°35' W 122°22'0 0.0
2015-Jun-20 13:29N 47°35' W 122°22'0 0.0
2015-Jun-20 12:33N 47°35' W 122°22'0 0.0
2015-Jun-20 12:33N 47°35' W 122°22'0 0.0
2015-Jun-20 11:33N 47°35' W 122°22'0 0.0
2015-Jun-20 11:32N 47°35' W 122°22'0 0.0
2015-Jun-20 10:33N 47°35' W 122°22'0 0.0
2015-Jun-20 10:26N 47°35' W 122°22'0 0.0
2015-Jun-20 09:33N 47°35' W 122°22'0 0.0
2015-Jun-20 09:25N 47°35' W 122°22'0 0.0
2015-Jun-20 08:33N 47°35' W 122°22'0 0.0
2015-Jun-20 08:30N 47°35' W 122°22'0 0.0
2015-Jun-20 07:33N 47°35' W 122°22'0 0.1
2015-Jun-20 07:29N 47°35' W 122°22'0 0.0
2015-Jun-20 06:33N 47°35' W 122°22'0 0.0
2015-Jun-20 06:08N 47°35' W 122°22'0 0.0
2015-Jun-20 05:58N 47°35' W 122°22'0 0.0
2015-Jun-20 05:33N 47°35' W 122°22'0 0.0
2015-Jun-20 04:33N 47°35' W 122°22'0 0.2
2015-Jun-20 04:31N 47°35' W 122°22'0 0.0
2015-Jun-20 03:33N 47°35' W 122°22'0 0.0
2015-Jun-20 03:30N 47°35' W 122°22'0 0.0
2015-Jun-20 02:33N 47°35' W 122°22'0 0.1
2015-Jun-20 02:29N 47°35' W 122°22'0 0.0
2015-Jun-20 01:33N 47°35' W 122°22'0 0.1
2015-Jun-20 01:29N 47°35' W 122°22'0 0.0
2015-Jun-20 00:33N 47°35' W 122°22'0 0.0
2015-Jun-20 00:33N 47°35' W 122°22'0 0.0
2015-Jun-19 23:33N 47°35' W 122°22'0 0.0
2015-Jun-19 23:33N 47°35' W 122°22'0 0.0
2015-Jun-19 22:33N 47°35' W 122°22'0 0.0
2015-Jun-19 22:33N 47°35' W 122°22'0 0.0
2015-Jun-19 21:33N 47°35' W 122°22'0 0.0
2015-Jun-19 21:33N 47°35' W 122°22'0 0.0
2015-Jun-19 20:33N 47°35' W 122°22'0 0.2
2015-Jun-19 20:32N 47°35' W 122°22'0 0.0
2015-Jun-19 19:32N 47°35' W 122°22'0 0.0
2015-Jun-19 19:31N 47°35' W 122°22'0 0.0
2015-Jun-19 18:33N 47°35' W 122°22'0 0.1
2015-Jun-19 18:31N 47°35' W 122°22'0 0.0
2015-Jun-19 17:33N 47°35' W 122°22'0 0.0
2015-Jun-19 17:20N 47°35' W 122°22'0 0.0
2015-Jun-19 16:33N 47°35' W 122°22'0 0.0
2015-Jun-19 16:29N 47°35' W 122°22'0 0.0
2015-Jun-19 15:33N 47°35' W 122°22'0 0.0
2015-Jun-19 15:24N 47°35' W 122°22'0 0.0
2015-Jun-19 14:33N 47°35' W 122°22'0 0.6
2015-Jun-19 14:33N 47°35' W 122°22'0 0.0
2015-Jun-19 13:33N 47°35' W 122°22'0 0.0
2015-Jun-19 13:22N 47°35' W 122°22'0 0.0
2015-Jun-19 12:33N 47°35' W 122°22'0 0.0
2015-Jun-19 12:31N 47°35' W 122°22'0 0.0
2015-Jun-19 11:33N 47°35' W 122°22'0 0.0
2015-Jun-19 11:29N 47°35' W 122°22'0 0.0
2015-Jun-19 10:33N 47°35' W 122°22'0 0.0
2015-Jun-19 10:33N 47°35' W 122°22'0 0.0
2015-Jun-19 09:33N 47°35' W 122°22'0 0.0
2015-Jun-19 09:33N 47°35' W 122°22'0 0.0
2015-Jun-19 08:33N 47°35' W 122°22'0 0.0
2015-Jun-19 08:33N 47°35' W 122°22'0 0.0
2015-Jun-19 07:33N 47°35' W 122°22'0 0.0
2015-Jun-19 07:32N 47°35' W 122°22'0 0.0
2015-Jun-19 06:33N 47°35' W 122°22'0 0.0
2015-Jun-19 06:32N 47°35' W 122°22'0 0.0
2015-Jun-19 06:07N 47°35' W 122°22'0 0.0
2015-Jun-19 05:33N 47°35' W 122°22'0 0.0
2015-Jun-19 04:33N 47°35' W 122°22'0 0.1
2015-Jun-19 04:31N 47°35' W 122°22'0 0.0
2015-Jun-19 03:33N 47°35' W 122°22'0 0.0
2015-Jun-19 03:30N 47°35' W 122°22'0 0.0
2015-Jun-19 02:32N 47°35' W 122°22'0 0.0
2015-Jun-19 02:29N 47°35' W 122°22'0 0.0
2015-Jun-19 01:33N 47°35' W 122°22'0 0.1
2015-Jun-19 01:29N 47°35' W 122°22'0 0.0
2015-Jun-19 00:33N 47°35' W 122°22'0 0.1
2015-Jun-19 00:29N 47°35' W 122°22'0 0.0
2015-Jun-18 23:33N 47°35' W 122°22'0 0.0
2015-Jun-18 23:23N 47°35' W 122°22'0 0.0
2015-Jun-18 22:33N 47°35' W 122°22'0 0.0
2015-Jun-18 22:32N 47°35' W 122°22'0 0.0
2015-Jun-18 21:33N 47°35' W 122°22'0 0.0
2015-Jun-18 21:31N 47°35' W 122°22'0 0.0
2015-Jun-18 20:33N 47°35' W 122°22'0 0.0
2015-Jun-18 20:31N 47°35' W 122°22'0 0.0
2015-Jun-18 19:33N 47°35' W 122°22'0 0.0
2015-Jun-18 19:31N 47°35' W 122°22'0 0.0
2015-Jun-18 18:33N 47°35' W 122°22'0 0.0
2015-Jun-18 18:30N 47°35' W 122°22'0 0.0
2015-Jun-18 17:33N 47°35' W 122°22'0 0.0
2015-Jun-18 17:30N 47°35' W 122°22'0 0.0
2015-Jun-18 16:33N 47°35' W 122°22'0 0.0
2015-Jun-18 16:30N 47°35' W 122°22'0 0.0
2015-Jun-18 15:33N 47°35' W 122°22'0 0.0
2015-Jun-18 15:30N 47°35' W 122°22'0 0.0
2015-Jun-18 14:33N 47°35' W 122°22'0 0.0
2015-Jun-18 14:29N 47°35' W 122°22'  

Dump ship's entire track history